Time;durP1;ratioP1;P1;durP2;ratioP2;P2;SDS_P1;SDS_P2;PMS_P1;PMS_P2;Temp;Humidity;BMP_temperature;BMP_pressure;BME280_temperature;BME280_humidity;BME280_pressure;Samples;Min_cycle;Max_cycle;Signal;HPM_P1;HPM_P2
2023/05/17 00:00:45;;;;;;;16.45;3.88;;;;;;;9.53;100.00;102404.75;4961829;28;20479;-74
2023/05/17 00:03:11;;;;;;;17.90;3.88;;;;;;;9.49;100.00;102402.31;4961533;28;20404;-73
2023/05/17 00:05:38;;;;;;;15.73;4.07;;;;;;;9.42;100.00;102394.94;4947812;28;20504;-74
2023/05/17 00:08:04;;;;;;;12.50;3.35;;;;;;;9.44;100.00;102393.91;4961882;28;20055;-74
2023/05/17 00:10:31;;;;;;;11.65;3.35;;;;;;;9.40;100.00;102395.03;4965487;28;20531;-76
2023/05/17 00:12:57;;;;;;;13.00;3.53;;;;;;;9.36;100.00;102396.19;4952245;28;20054;-76
2023/05/17 00:15:24;;;;;;;13.30;3.85;;;;;;;9.37;100.00;102392.66;4957464;28;20106;-76
2023/05/17 00:17:51;;;;;;;22.05;4.20;;;;;;;9.35;100.00;102385.81;4965695;28;20051;-74
2023/05/17 00:20:17;;;;;;;15.18;4.03;;;;;;;9.35;100.00;102389.28;4951236;28;20400;-73
2023/05/17 00:22:46;;;;;;;13.20;3.28;;;;;;;9.36;100.00;102390.13;4971582;28;20479;-74
2023/05/17 00:25:12;;;;;;;9.85;3.22;;;;;;;9.34;100.00;102392.00;4965394;28;20055;-73
2023/05/17 00:27:39;;;;;;;11.98;4.00;;;;;;;9.32;100.00;102389.47;4958543;28;20480;-74
2023/05/17 00:30:06;;;;;;;12.55;3.58;;;;;;;9.30;100.00;102394.81;4951314;28;20061;-74
2023/05/17 00:32:32;;;;;;;14.23;3.50;;;;;;;9.30;100.00;102393.97;4940886;28;20431;-75
2023/05/17 00:34:59;;;;;;;14.77;3.45;;;;;;;9.27;100.00;102391.53;4963553;28;20252;-75
2023/05/17 00:37:26;;;;;;;15.48;4.05;;;;;;;9.23;100.00;102397.91;4964995;28;20043;-76
2023/05/17 00:39:52;;;;;;;16.17;3.92;;;;;;;9.21;100.00;102394.56;4975231;28;20062;-75
2023/05/17 00:42:19;;;;;;;20.00;4.10;;;;;;;9.20;100.00;102390.28;4965306;28;20066;-76
2023/05/17 00:44:46;;;;;;;14.57;3.88;;;;;;;9.17;100.00;102388.69;4952503;28;20558;-76
2023/05/17 00:47:12;;;;;;;17.02;4.63;;;;;;;9.13;100.00;102383.75;4962261;28;20125;-75
2023/05/17 00:49:39;;;;;;;15.85;4.43;;;;;;;9.10;100.00;102388.25;4951017;28;20059;-75
2023/05/17 00:52:06;;;;;;;21.95;5.38;;;;;;;9.05;100.00;102386.84;4966460;28;20070;-76
2023/05/17 00:54:33;;;;;;;20.58;4.15;;;;;;;9.00;100.00;102392.41;4976368;28;20094;-76
2023/05/17 00:57:00;;;;;;;19.35;5.78;;;;;;;8.94;100.00;102395.41;4955484;28;20051;-76
2023/05/17 00:59:28;;;;;;;18.20;4.75;;;;;;;8.95;100.00;102396.22;4967273;28;20085;-75
2023/05/17 01:01:55;;;;;;;14.27;4.40;;;;;;;8.89;100.00;102385.19;4957444;28;20055;-76
2023/05/17 01:04:21;;;;;;;10.90;3.75;;;;;;;8.94;100.00;102378.84;4971375;28;20411;-74
2023/05/17 01:06:49;;;;;;;17.80;4.78;;;;;;;8.97;100.00;102381.28;4984265;28;20074;-75
2023/05/17 01:09:16;;;;;;;12.23;4.00;;;;;;;9.01;100.00;102386.19;4960370;28;20467;-74
2023/05/17 01:11:57;;;;;;;13.55;5.47;;;;;;;9.01;100.00;102393.22;4965587;28;20081;-75
2023/05/17 01:14:40;;;;;;;13.50;3.97;;;;;;;8.98;100.00;102380.34;4961767;28;20487;-74
2023/05/17 01:17:21;;;;;;;13.43;3.92;;;;;;;8.99;100.00;102376.78;4953829;28;20361;-73
2023/05/17 01:20:00;;;;;;;13.82;4.60;;;;;;;8.96;100.00;102390.91;4955626;28;20051;-73
2023/05/17 01:22:36;;;;;;;17.77;4.35;;;;;;;8.92;100.00;102371.09;4960035;28;20129;-74
2023/05/17 01:25:33;;;;;;;15.88;4.82;;;;;;;8.97;100.00;102376.03;4945083;29;20051;-73
2023/05/17 01:28:02;;;;;;;15.15;4.35;;;;;;;8.95;100.00;102373.50;4957439;28;20043;-74
2023/05/17 01:30:32;;;;;;;19.67;4.82;;;;;;;8.98;100.00;102375.94;4958798;28;20062;-73
2023/05/17 01:33:01;;;;;;;11.10;4.20;;;;;;;8.98;100.00;102378.56;4957589;28;20058;-73
2023/05/17 01:35:28;;;;;;;19.75;4.78;;;;;;;8.95;100.00;102380.53;4965570;28;20571;-73
2023/05/17 01:37:55;;;;;;;19.67;5.10;;;;;;;8.96;100.00;102379.56;4959505;28;20523;-73
2023/05/17 01:40:23;;;;;;;19.08;5.22;;;;;;;8.91;100.00;102378.09;4941611;28;20114;-73
2023/05/17 01:43:07;;;;;;;20.55;4.68;;;;;;;8.92;100.00;102376.34;4940834;28;20047;-74
2023/05/17 01:45:42;;;;;;;14.98;3.95;;;;;;;9.00;100.00;102383.72;4954511;28;21084;-73
2023/05/17 01:48:38;;;;;;;14.05;4.28;;;;;;;8.97;100.00;102378.66;4960768;28;20051;-74
2023/05/17 01:51:08;;;;;;;14.80;4.80;;;;;;;8.93;100.00;102374.56;4957510;28;20113;-74
2023/05/17 01:53:34;;;;;;;12.13;4.40;;;;;;;8.96;100.00;102383.06;4957997;28;20051;-73
2023/05/17 01:56:06;;;;;;;14.55;4.15;;;;;;;8.98;100.00;102382.97;4967923;28;20082;-73
2023/05/17 01:58:43;;;;;;;11.82;4.28;;;;;;;9.02;100.00;102387.91;4941441;28;20067;-73
2023/05/17 02:01:10;;;;;;;20.58;4.57;;;;;;;9.09;100.00;102396.19;4957964;28;20121;-74
2023/05/17 02:03:36;;;;;;;19.73;5.13;;;;;;;9.07;100.00;102382.34;4958003;28;20050;-73
2023/05/17 02:06:03;;;;;;;13.90;4.43;;;;;;;9.07;100.00;102377.94;4950962;28;20494;-74
2023/05/17 02:08:30;;;;;;;21.77;5.70;;;;;;;9.10;100.00;102387.41;4956197;28;20086;-73
2023/05/17 02:10:56;;;;;;;11.40;4.22;;;;;;;9.09;100.00;102383.09;4952474;28;20102;-74
2023/05/17 02:13:23;;;;;;;20.15;4.88;;;;;;;9.14;100.00;102390.69;4964924;28;20055;-73
2023/05/17 02:15:49;;;;;;;17.55;5.40;;;;;;;9.12;100.00;102382.91;4968819;28;20121;-74
2023/05/17 02:18:16;;;;;;;15.38;5.05;;;;;;;9.16;100.00;102388.78;4964200;28;20065;-74
2023/05/17 02:20:42;;;;;;;20.65;4.93;;;;;;;9.12;100.00;102379.47;4971944;28;20047;-74
2023/05/17 02:23:10;;;;;;;13.35;4.68;;;;;;;9.19;100.00;102385.97;4959239;28;20059;-73
2023/05/17 02:25:36;;;;;;;18.35;5.38;;;;;;;9.19;100.00;102385.97;4956914;28;20448;-73
2023/05/17 02:28:03;;;;;;;16.77;4.60;;;;;;;9.21;100.00;102390.19;4969529;28;20055;-74
2023/05/17 02:30:30;;;;;;;18.52;4.88;;;;;;;9.23;100.00;102396.16;4954016;28;20105;-73
2023/05/17 02:32:56;;;;;;;13.07;4.57;;;;;;;9.21;100.00;102398.03;4959122;28;20471;-73
2023/05/17 02:35:23;;;;;;;17.35;4.97;;;;;;;9.21;100.00;102392.81;4982429;28;20093;-74
2023/05/17 02:37:50;;;;;;;12.45;4.57;;;;;;;9.23;100.00;102396.16;4958885;28;20061;-74
2023/05/17 02:40:17;;;;;;;13.13;4.97;;;;;;;9.28;100.00;102404.53;4964489;28;20051;-73
2023/05/17 02:42:44;;;;;;;17.55;5.25;;;;;;;9.30;100.00;102402.66;4966026;28;20098;-73
2023/05/17 02:45:10;;;;;;;17.67;5.03;;;;;;;9.32;100.00;102404.34;4973305;28;20055;-74
2023/05/17 02:47:37;;;;;;;17.33;4.90;;;;;;;9.37;100.00;102407.50;4962910;28;20043;-73
2023/05/17 02:50:04;;;;;;;17.20;5.25;;;;;;;9.37;100.00;102400.50;4939776;28;20051;-74
2023/05/17 02:52:30;;;;;;;20.67;5.95;;;;;;;9.38;100.00;102406.56;4967200;28;20059;-74
2023/05/17 02:54:57;;;;;;;20.50;5.22;;;;;;;9.38;100.00;102415.25;4973484;28;20051;-74
2023/05/17 02:57:23;;;;;;;17.67;5.30;;;;;;;9.40;100.00;102413.38;4938749;28;20491;-70
2023/05/17 02:59:50;;;;;;;13.95;5.22;;;;;;;9.45;100.00;102413.94;4964517;28;20090;-70
2023/05/17 03:02:17;;;;;;;16.63;5.38;;;;;;;9.50;100.00;102413.63;4943417;28;20470;-70
2023/05/17 03:04:43;;;;;;;17.63;4.97;;;;;;;9.52;100.00;102422.22;4954678;28;20073;-71
2023/05/17 03:07:10;;;;;;;18.20;5.13;;;;;;;9.56;100.00;102426.31;4956240;28;20051;-70
2023/05/17 03:09:37;;;;;;;16.55;5.75;;;;;;;9.59;100.00;102428.75;4979516;28;20078;-70
2023/05/17 03:12:03;;;;;;;16.95;4.85;;;;;;;9.65;100.00;102443.22;4947419;28;20110;-71
2023/05/17 03:14:30;;;;;;;16.77;4.90;;;;;;;9.76;100.00;102435.50;4949573;28;20054;-70
2023/05/17 03:16:56;;;;;;;19.38;6.00;;;;;;;9.82;100.00;102436.84;4966687;28;20058;-71
2023/05/17 03:19:23;;;;;;;18.33;5.65;;;;;;;9.86;100.00;102438.34;4941505;28;20099;-70
2023/05/17 03:21:50;;;;;;;14.35;4.85;;;;;;;9.88;100.00;102439.09;4953715;28;20054;-70
2023/05/17 03:24:16;;;;;;;16.10;5.00;;;;;;;9.88;100.00;102450.41;4964218;28;20062;-70
2023/05/17 03:26:43;;;;;;;16.25;5.05;;;;;;;9.91;100.00;102451.97;4953423;28;20589;-71
2023/05/17 03:29:10;;;;;;;17.65;5.25;;;;;;;9.89;100.00;102452.06;4953625;28;20875;-70
2023/05/17 03:31:37;;;;;;;16.58;4.43;;;;;;;9.86;100.00;102454.91;4948439;28;20093;-71
2023/05/17 03:34:03;;;;;;;19.92;5.80;;;;;;;9.87;100.00;102458.38;4971284;28;20054;-71
2023/05/17 03:36:34;;;;;;;22.65;5.65;;;;;;;9.88;100.00;102466.13;4956933;28;20055;-71
2023/05/17 03:39:03;;;;;;;14.55;4.85;;;;;;;9.87;100.00;102468.84;4969041;28;20487;-71
2023/05/17 03:41:31;;;;;;;14.40;4.63;;;;;;;9.90;100.00;102466.88;4946679;28;20624;-71
2023/05/17 03:43:57;;;;;;;17.98;5.45;;;;;;;9.90;100.00;102463.41;4948686;28;20062;-71
2023/05/17 03:46:23;;;;;;;15.65;4.65;;;;;;;9.92;100.00;102458.06;4959527;28;20051;-73
2023/05/17 03:48:50;;;;;;;14.82;5.03;;;;;;;9.94;100.00;102478.00;4968011;28;20085;-70
2023/05/17 03:51:17;;;;;;;18.98;5.57;;;;;;;9.97;100.00;102477.78;4970326;28;20133;-70
2023/05/17 03:53:43;;;;;;;16.60;4.80;;;;;;;9.94;100.00;102472.75;4963348;28;20471;-71
2023/05/17 03:56:10;;;;;;;16.63;4.55;;;;;;;9.97;100.00;102480.41;4952461;28;20528;-70
2023/05/17 03:58:37;;;;;;;17.08;4.93;;;;;;;10.02;100.00;102486.19;4968285;28;20047;-70
2023/05/17 04:01:04;;;;;;;19.73;4.55;;;;;;;10.03;100.00;102484.41;4948246;28;20116;-71
2023/05/17 04:03:30;;;;;;;14.52;4.65;;;;;;;10.02;100.00;102487.97;4972133;28;20480;-71
2023/05/17 04:06:05;;;;;;;12.68;4.25;;;;;;;10.04;100.00;102486.94;4968164;28;20097;-71
2023/05/17 04:08:33;;;;;;;17.23;4.78;;;;;;;10.06;100.00;102481.59;4958735;28;20063;-70
2023/05/17 04:11:08;;;;;;;19.50;4.88;;;;;;;10.04;100.00;102489.53;4946179;28;20062;-70
2023/05/17 04:13:38;;;;;;;15.32;4.55;;;;;;;10.02;100.00;102480.94;4970840;28;20135;-70
2023/05/17 04:16:06;;;;;;;13.75;4.10;;;;;;;10.04;100.00;102497.41;4949600;28;20047;-70
2023/05/17 04:18:34;;;;;;;10.85;4.78;;;;;;;10.01;100.00;102497.59;4948419;28;20086;-70
2023/05/17 04:21:02;;;;;;;14.88;4.30;;;;;;;9.99;100.00;102498.66;4945203;28;20050;-70
2023/05/17 04:23:29;;;;;;;14.25;4.68;;;;;;;9.94;100.00;102498.97;4966148;28;20051;-70
2023/05/17 04:25:57;;;;;;;19.25;4.55;;;;;;;9.88;100.00;102502.84;4964057;28;20082;-70
2023/05/17 04:28:24;;;;;;;19.95;4.65;;;;;;;9.86;100.00;102503.88;4953741;28;20054;-70
2023/05/17 04:30:51;;;;;;;18.02;5.30;;;;;;;9.80;100.00;102501.63;4950710;28;20105;-70
2023/05/17 04:33:18;;;;;;;12.38;4.85;;;;;;;9.77;100.00;102505.31;4960772;28;20058;-70
2023/05/17 04:35:45;;;;;;;12.80;4.95;;;;;;;9.77;100.00;102515.78;4951080;28;20528;-71
2023/05/17 04:38:12;;;;;;;16.52;4.93;;;;;;;9.78;100.00;102517.47;4978177;28;20106;-70
2023/05/17 04:40:38;;;;;;;12.65;4.50;;;;;;;9.76;100.00;102521.13;4955174;28;20105;-71
2023/05/17 04:43:05;;;;;;;16.40;5.32;;;;;;;9.75;100.00;102519.47;4964237;28;20109;-70
2023/05/17 04:45:32;;;;;;;15.10;4.88;;;;;;;9.75;100.00;102525.53;4962062;28;20121;-71
2023/05/17 04:47:59;;;;;;;10.90;4.18;;;;;;;9.72;100.00;102523.09;4969120;28;20555;-70
2023/05/17 04:50:26;;;;;;;16.73;4.60;;;;;;;9.68;100.00;102530.34;4961759;28;20141;-70
2023/05/17 04:52:53;;;;;;;13.45;4.50;;;;;;;9.66;100.00;102531.34;4967950;28;20519;-70
2023/05/17 04:55:20;;;;;;;15.38;4.65;;;;;;;9.70;100.00;102532.84;4953950;28;20109;-70
2023/05/17 04:57:46;;;;;;;13.93;4.97;;;;;;;9.72;100.00;102541.44;4957424;28;20059;-71
2023/05/17 05:00:14;;;;;;;12.70;4.88;;;;;;;9.75;100.00;102538.63;4968002;28;20105;-70
2023/05/17 05:02:41;;;;;;;11.68;4.60;;;;;;;9.80;100.00;102544.44;4953274;28;20105;-70
2023/05/17 05:05:10;;;;;;;11.43;4.35;;;;;;;9.88;100.00;102546.56;4975578;28;20090;-71
2023/05/17 05:07:38;;;;;;;9.63;3.95;;;;;;;9.92;100.00;102542.78;4964787;28;20456;-73
2023/05/17 05:10:06;;;;;;;19.47;5.57;;;;;;;10.02;100.00;102548.28;4968455;28;20051;-72
2023/05/17 05:12:32;;;;;;;16.15;4.60;;;;;;;10.09;100.00;102549.53;4959057;28;20842;-72
2023/05/17 05:14:59;;;;;;;16.33;4.93;;;;;;;10.15;100.00;102551.75;4971303;28;20065;-72
2023/05/17 05:17:27;;;;;;;15.60;4.63;;;;;;;10.19;100.00;102557.63;4945885;28;20070;-72
2023/05/17 05:19:55;;;;;;;15.52;4.78;;;;;;;10.14;100.00;102555.34;4950495;28;20110;-72
2023/05/17 05:22:21;;;;;;;22.40;5.00;;;;;;;10.14;100.00;102554.50;4957127;28;20106;-72
2023/05/17 05:24:48;;;;;;;13.30;4.70;;;;;;;10.17;100.00;102559.53;4952945;28;20060;-72
2023/05/17 05:27:14;;;;;;;17.33;5.40;;;;;;;10.22;100.00;102565.31;4951344;28;20069;-72
2023/05/17 05:29:41;;;;;;;18.63;5.28;;;;;;;10.27;100.00;102569.31;4960443;28;20061;-72
2023/05/17 05:32:08;;;;;;;18.10;5.55;;;;;;;10.33;100.00;102572.50;4951190;28;20578;-73
2023/05/17 05:34:34;;;;;;;18.75;5.15;;;;;;;10.35;100.00;102568.84;4946279;28;20046;-73
2023/05/17 05:37:01;;;;;;;17.83;4.50;;;;;;;10.39;100.00;102582.56;4952645;28;20111;-72
2023/05/17 05:39:27;;;;;;;14.18;4.85;;;;;;;10.41;100.00;102576.31;4969142;28;20047;-72
2023/05/17 05:41:54;;;;;;;17.90;4.35;;;;;;;10.47;100.00;102585.56;4962390;28;20082;-73
2023/05/17 05:44:20;;;;;;;17.30;3.60;;;;;;;10.46;100.00;102589.94;4968402;28;20050;-72
2023/05/17 05:46:50;;;;;;;17.25;3.42;;;;;;;10.57;100.00;102598.91;4976304;28;20893;-70
2023/05/17 05:49:18;;;;;;;16.50;3.65;;;;;;;10.63;100.00;102603.72;4963956;28;20245;-72
2023/05/17 05:51:44;;;;;;;21.43;4.93;;;;;;;10.72;100.00;102603.09;4967657;28;20054;-72
2023/05/17 05:54:12;;;;;;;23.27;4.05;;;;;;;10.80;100.00;102603.44;4963604;28;20085;-73
2023/05/17 05:56:39;;;;;;;15.93;3.83;;;;;;;10.85;100.00;102597.84;4971282;28;20054;-71
2023/05/17 05:59:06;;;;;;;16.70;3.92;;;;;;;10.89;100.00;102608.03;4967839;28;20092;-73
2023/05/17 06:01:32;;;;;;;20.35;3.97;;;;;;;10.95;100.00;102608.56;4950931;28;20047;-73
2023/05/17 06:03:59;;;;;;;19.80;4.50;;;;;;;10.99;100.00;102610.88;4976456;28;20098;-74
2023/05/17 06:06:26;;;;;;;15.20;4.55;;;;;;;11.00;100.00;102624.88;4979771;28;20050;-72
2023/05/17 06:08:52;;;;;;;15.82;3.38;;;;;;;11.05;100.00;102625.38;4973172;28;20043;-72
2023/05/17 06:11:19;;;;;;;15.77;3.28;;;;;;;11.05;100.00;102631.50;4964125;28;20042;-73
2023/05/17 06:13:49;;;;;;;10.65;3.40;;;;;;;11.12;100.00;102633.69;4967931;28;20050;-69
2023/05/17 06:16:16;;;;;;;18.48;3.85;;;;;;;11.15;100.00;102634.28;4960446;28;20074;-72
2023/05/17 06:18:42;;;;;;;12.18;2.72;;;;;;;11.22;100.00;102634.72;4977044;28;20058;-72
2023/05/17 06:21:12;;;;;;;14.13;2.90;;;;;;;11.28;100.00;102631.66;4965800;28;20060;-72
2023/05/17 06:23:38;;;;;;;17.63;3.08;;;;;;;11.33;100.00;102644.47;4957931;28;20546;-72
2023/05/17 06:26:09;;;;;;;14.95;2.28;;;;;;;11.44;100.00;102642.78;4965708;28;20047;-72
2023/05/17 06:28:36;;;;;;;22.67;2.88;;;;;;;11.47;100.00;102639.94;4950898;28;20097;-72
2023/05/17 06:31:03;;;;;;;13.10;2.40;;;;;;;11.44;100.00;102642.78;4963661;28;20380;-71
2023/05/17 06:33:29;;;;;;;19.20;2.72;;;;;;;11.41;100.00;102645.63;4958398;28;20122;-72
2023/05/17 06:35:56;;;;;;;14.90;2.22;;;;;;;11.41;100.00;102643.00;4966943;28;20696;-71
2023/05/17 06:38:30;;;;;;;13.45;3.13;;;;;;;11.37;100.00;102646.81;4962567;28;20075;-71
2023/05/17 06:40:57;;;;;;;18.40;2.47;;;;;;;11.30;100.00;102650.78;4979911;28;20681;-71
2023/05/17 06:43:24;;;;;;;17.98;3.10;;;;;;;11.30;100.00;102648.16;4963912;28;20058;-73
2023/05/17 06:45:50;;;;;;;10.57;2.28;;;;;;;11.27;100.00;102643.09;4960989;28;20058;-71
2023/05/17 06:48:17;;;;;;;16.67;2.67;;;;;;;11.34;100.00;102651.41;4967299;28;20051;-71
2023/05/17 06:50:43;;;;;;;13.63;2.67;;;;;;;11.35;100.00;102645.19;4960878;28;20078;-72
2023/05/17 06:53:10;;;;;;;15.55;2.22;;;;;;;11.38;100.00;102647.63;4968107;28;20476;-71
2023/05/17 06:55:37;;;;;;;14.05;2.92;;;;;;;11.41;100.00;102653.53;4964095;28;20628;-71
2023/05/17 06:58:03;;;;;;;14.30;3.17;;;;;;;11.47;100.00;102655.72;4971198;28;20051;-72
2023/05/17 07:00:30;;;;;;;18.20;2.30;;;;;;;11.46;100.00;102659.28;4974661;28;20112;-72
2023/05/17 07:02:57;;;;;;;12.05;2.65;;;;;;;11.55;100.00;102665.69;4950356;28;20062;-71
2023/05/17 07:05:24;;;;;;;15.85;2.30;;;;;;;11.43;100.00;102658.69;4967391;28;20073;-71
2023/05/17 07:07:51;;;;;;;12.57;2.53;;;;;;;11.47;100.00;102660.13;4965446;28;20046;-71
2023/05/17 07:10:17;;;;;;;10.57;1.75;;;;;;;11.47;100.00;102668.03;4974003;28;20055;-71
2023/05/17 07:12:46;;;;;;;13.95;1.90;;;;;;;11.47;100.00;102660.13;4960448;28;20099;-70
2023/05/17 07:15:13;;;;;;;17.40;2.05;;;;;;;11.58;100.00;102664.63;4973494;28;20051;-71
2023/05/17 07:17:40;;;;;;;13.43;2.42;;;;;;;11.74;100.00;102670.50;4972663;28;20582;-71
2023/05/17 07:20:07;;;;;;;11.88;1.88;;;;;;;11.80;100.00;102674.47;4949392;28;20054;-72
2023/05/17 07:22:36;;;;;;;12.38;2.70;;;;;;;11.93;100.00;102670.03;4986900;28;20724;-72
2023/05/17 07:25:03;;;;;;;10.25;1.63;;;;;;;11.95;98.35;102675.19;4954580;28;20394;-72
2023/05/17 07:27:30;;;;;;;10.07;1.75;;;;;;;12.05;99.21;102684.09;4985425;28;20077;-72
2023/05/17 07:29:56;;;;;;;15.07;2.03;;;;;;;12.07;97.68;102675.16;5000335;28;20046;-73
2023/05/17 07:32:23;;;;;;;10.30;1.73;;;;;;;12.16;97.83;102684.16;4985455;28;20051;-73
2023/05/17 07:34:49;;;;;;;9.48;1.70;;;;;;;12.15;92.91;102676.38;4982503;28;20134;-71
2023/05/17 07:37:16;;;;;;;6.40;1.75;;;;;;;12.22;95.94;102690.78;4946656;28;20078;-70
2023/05/17 07:39:43;;;;;;;7.80;1.67;;;;;;;12.20;92.77;102688.25;4969399;28;20061;-70
2023/05/17 07:42:09;;;;;;;7.82;1.65;;;;;;;12.25;90.87;102685.28;4967002;28;20179;-70
2023/05/17 07:44:36;;;;;;;10.75;1.92;;;;;;;12.22;86.06;102680.25;4970892;28;20059;-72
2023/05/17 07:47:02;;;;;;;13.57;2.17;;;;;;;12.21;86.56;102689.94;4966603;28;20074;-72
2023/05/17 07:49:30;;;;;;;7.45;1.40;;;;;;;12.27;87.99;102689.50;4965248;28;20514;-72
2023/05/17 07:51:56;;;;;;;11.38;1.42;;;;;;;12.36;91.59;102692.41;4963425;28;20479;-72
2023/05/17 07:54:28;;;;;;;7.60;1.83;;;;;;;12.51;91.88;102690.44;4959986;28;20054;-72
2023/05/17 07:56:55;;;;;;;9.63;1.60;;;;;;;12.63;89.55;102692.16;4953304;28;20047;-72
2023/05/17 07:59:22;;;;;;;10.82;1.20;;;;;;;12.69;84.28;102693.50;4962256;28;20125;-72
2023/05/17 08:01:49;;;;;;;14.43;1.80;;;;;;;12.77;86.49;102693.75;4961113;28;20054;-71
2023/05/17 08:04:16;;;;;;;4.68;0.90;;;;;;;12.83;83.57;102695.94;4958150;28;20447;-73
2023/05/17 08:06:45;;;;;;;12.07;2.00;;;;;;;12.84;83.15;102689.72;4962781;28;20315;-73
2023/05/17 08:09:11;;;;;;;9.00;1.45;;;;;;;12.86;79.99;102691.28;4950242;28;20477;-73
2023/05/17 08:11:44;;;;;;;6.00;1.45;;;;;;;12.96;83.04;102691.41;4978587;28;20050;-72
2023/05/17 08:14:13;;;;;;;10.75;2.03;;;;;;;13.14;81.04;102698.88;4968915;28;20424;-73
2023/05/17 08:16:45;;;;;;;6.38;1.40;;;;;;;13.23;78.64;102700.78;4956392;28;20416;-72
2023/05/17 08:19:13;;;;;;;6.75;1.17;;;;;;;13.42;76.40;102690.53;4962115;28;20102;-73
2023/05/17 08:21:41;;;;;;;7.03;1.48;;;;;;;13.73;78.55;102700.50;4958656;28;20117;-72
2023/05/17 08:24:08;;;;;;;5.70;1.63;;;;;;;14.02;75.60;102701.66;4947803;29;20491;-72
2023/05/17 08:26:35;;;;;;;11.48;1.83;;;;;;;14.18;70.03;102700.41;4957887;28;20051;-72
2023/05/17 08:29:03;;;;;;;8.52;1.45;;;;;;;14.51;71.31;102698.63;4955823;28;20598;-72
2023/05/17 08:31:31;;;;;;;11.13;1.45;;;;;;;14.88;71.33;102696.44;4955623;28;20055;-72
2023/05/17 08:33:57;;;;;;;7.43;1.70;;;;;;;15.36;70.31;102702.94;4946551;28;20219;-72
2023/05/17 08:36:24;;;;;;;9.32;1.33;;;;;;;15.61;63.83;102697.22;4959943;28;20495;-72
2023/05/17 08:38:51;;;;;;;5.95;1.38;;;;;;;16.01;60.82;102700.81;4949370;28;20101;-72
2023/05/17 08:41:19;;;;;;;9.23;1.63;;;;;;;16.32;60.77;102690.16;4961665;28;20589;-72
2023/05/17 08:43:47;;;;;;;8.48;1.65;;;;;;;16.60;59.16;102701.69;4958569;28;20054;-72
2023/05/17 08:46:17;;;;;;;7.13;1.85;;;;;;;16.92;58.77;102703.25;4944512;28;20063;-72
2023/05/17 08:48:45;;;;;;;7.10;1.38;;;;;;;17.16;57.29;102700.13;4974947;28;20551;-72
2023/05/17 08:51:13;;;;;;;5.63;1.13;;;;;;;17.33;53.71;102699.38;4951361;28;20064;-72
2023/05/17 08:53:41;;;;;;;5.15;1.13;;;;;;;17.52;53.72;102706.44;4969296;28;20105;-72
2023/05/17 08:56:10;;;;;;;11.02;1.48;;;;;;;17.58;53.36;102689.91;4961200;28;20101;-72
2023/05/17 08:58:42;;;;;;;8.23;1.30;;;;;;;17.67;51.53;102704.09;4966441;28;20046;-71
2023/05/17 09:01:23;;;;;;;8.60;1.45;;;;;;;18.01;52.65;102700.03;4961429;28;20083;-71
2023/05/17 09:03:52;;;;;;;5.38;1.23;;;;;;;18.16;52.01;102696.69;4948648;28;20051;-71
2023/05/17 09:06:21;;;;;;;9.98;1.20;;;;;;;18.27;49.79;102693.00;4950410;28;20497;-71
2023/05/17 09:08:53;;;;;;;;;;;;;;;18.53;51.95;102706.34;4961887;28;20081;-71
2023/05/17 09:11:34;;;;;;;5.80;1.48;;;;;;;18.51;49.21;102704.84;4958148;28;20037;-71
2023/05/17 09:14:03;;;;;;;11.18;1.33;;;;;;;18.72;50.23;102704.50;4948844;28;20077;-71
2023/05/17 09:16:35;;;;;;;11.25;1.63;;;;;;;18.82;50.17;102704.41;4958695;28;20051;-71
2023/05/17 09:19:03;;;;;;;6.32;1.15;;;;;;;19.02;49.62;102705.91;4954255;28;20116;-71
2023/05/17 09:21:31;;;;;;;5.60;1.35;;;;;;;19.13;47.98;102710.97;4956556;28;20070;-71
2023/05/17 09:24:00;;;;;;;6.35;1.27;;;;;;;19.27;46.29;102714.03;4959905;28;20050;-71
2023/05/17 09:26:40;;;;;;;7.30;1.20;;;;;;;19.46;46.67;102707.63;4950741;28;20051;-70
2023/05/17 09:29:09;;;;;;;6.20;1.20;;;;;;;19.53;47.34;102711.34;4960168;28;20067;-71
2023/05/17 09:31:36;;;;;;;8.40;1.60;;;;;;;19.77;47.52;102705.28;4957519;28;20300;-71
2023/05/17 09:34:02;;;;;;;7.07;1.30;;;;;;;19.20;46.85;102718.31;4965975;28;20054;-71
2023/05/17 09:36:29;;;;;;;4.18;1.25;;;;;;;19.11;47.78;102717.41;4960557;28;20101;-71
2023/05/17 09:39:00;;;;;;;11.30;1.90;;;;;;;19.20;46.05;102702.34;4966156;28;20073;-72
2023/05/17 09:41:29;;;;;;;6.18;1.25;;;;;;;19.45;46.88;102703.31;4967948;28;20426;-72
2023/05/17 09:44:00;;;;;;;6.20;1.30;;;;;;;19.45;46.67;102698.00;4954054;28;20273;-71
2023/05/17 09:46:33;;;;;;;5.05;1.27;;;;;;;19.62;45.47;102709.53;4965402;28;20089;-72
2023/05/17 09:49:01;;;;;;;6.32;1.45;;;;;;;19.69;46.78;102718.56;4960776;28;20431;-71
2023/05/17 09:51:37;;;;;;;6.47;1.27;;;;;;;19.85;44.02;102707.97;4965406;28;20105;-72
2023/05/17 09:54:08;;;;;;;6.55;1.40;;;;;;;19.81;43.66;102714.63;4960834;28;20055;-72
2023/05/17 09:56:35;;;;;;;5.45;1.52;;;;;;;19.42;43.60;102711.59;4965056;28;20446;-72
2023/05/17 09:59:09;;;;;;;6.60;1.40;;;;;;;19.62;44.67;102709.53;4943148;28;20102;-70
2023/05/17 10:01:39;;;;;;;4.90;1.42;;;;;;;19.88;45.04;102707.66;4958371;28;20742;-70
2023/05/17 10:04:09;;;;;;;9.65;1.58;;;;;;;20.02;42.80;102700.03;4960130;28;20098;-69
2023/05/17 10:06:40;;;;;;;6.93;1.40;;;;;;;20.14;44.26;102704.88;4957092;28;20082;-71
2023/05/17 10:09:12;;;;;;;7.22;1.80;;;;;;;20.12;43.01;102700.72;4967058;28;20078;-71
2023/05/17 10:11:43;;;;;;;6.50;1.38;;;;;;;20.03;42.54;102701.69;4941429;28;20051;-70
2023/05/17 10:14:21;;;;;;;7.13;1.33;;;;;;;19.99;41.86;102700.34;4975948;28;20054;-71
2023/05/17 10:16:49;;;;;;;6.32;1.83;;;;;;;20.14;42.99;102707.53;4961282;28;20069;-73
2023/05/17 10:19:18;;;;;;;7.20;1.30;;;;;;;19.77;40.01;102697.31;4944442;28;20055;-71
2023/05/17 10:21:52;;;;;;;7.35;1.42;;;;;;;19.25;42.08;102698.25;4964240;28;20063;-71
2023/05/17 10:24:22;;;;;;;8.45;1.17;;;;;;;19.20;45.08;102707.69;4955025;28;20057;-72
2023/05/17 10:26:50;;;;;;;4.13;1.23;;;;;;;19.41;43.95;102708.13;4967660;28;20118;-71
2023/05/17 10:29:19;;;;;;;8.97;1.20;;;;;;;19.52;42.35;102702.53;4953437;28;20059;-72
2023/05/17 10:31:49;;;;;;;5.43;1.35;;;;;;;19.65;42.07;102707.38;4939969;28;20126;-71
2023/05/17 10:34:17;;;;;;;6.60;1.23;;;;;;;19.70;41.06;102699.75;4959238;28;20466;-73
2023/05/17 10:36:45;;;;;;;7.00;1.30;;;;;;;19.64;41.64;102707.53;4946479;28;20133;-72
2023/05/17 10:39:12;;;;;;;6.10;0.90;;;;;;;19.97;41.91;102702.34;4958434;28;20047;-72
2023/05/17 10:41:45;;;;;;;6.00;1.20;;;;;;;20.16;41.09;102699.41;4960765;28;20539;-72
2023/05/17 10:44:13;;;;;;;5.93;1.27;;;;;;;20.19;39.98;102699.06;4960283;28;20046;-72
2023/05/17 10:46:50;;;;;;;5.35;1.38;;;;;;;20.09;42.12;102703.69;4938812;28;20054;-71
2023/05/17 10:49:16;;;;;;;6.82;1.08;;;;;;;20.19;41.52;102700.88;4957714;28;20065;-71
2023/05/17 10:51:49;;;;;;;7.53;1.33;;;;;;;20.14;41.05;102696.06;4961332;28;20714;-72
2023/05/17 10:54:17;;;;;;;4.85;1.20;;;;;;;20.39;42.97;102694.25;4963837;28;20118;-71
2023/05/17 10:56:49;;;;;;;6.30;1.30;;;;;;;20.64;40.20;102686.28;4949547;28;20082;-73
2023/05/17 10:59:25;;;;;;;4.25;1.20;;;;;;;20.98;40.38;102671.91;4943077;28;20062;-71
2023/05/17 11:02:02;;;;;;;6.45;1.38;;;;;;;21.00;37.91;102681.41;4968835;28;20585;-71
2023/05/17 11:04:31;;;;;;;5.72;1.30;;;;;;;20.54;38.81;102681.94;4978478;28;20063;-71
2023/05/17 11:07:16;;;;;;;6.78;1.25;;;;;;;20.68;39.24;102671.59;4979748;28;20064;-73
2023/05/17 11:09:44;;;;;;;5.95;1.30;;;;;;;20.82;39.56;102675.44;4967878;28;20051;-71
2023/05/17 11:12:12;;;;;;;5.28;1.40;;;;;;;20.92;40.48;102676.91;4964139;28;20087;-71
2023/05/17 11:14:46;;;;;;;;;;;;;;;20.83;37.27;102675.25;4945029;28;20531;-72
2023/05/17 11:17:13;;;;;;;3.80;1.05;;;;;;;20.68;38.05;102659.13;4951636;28;19926;-71
2023/05/17 11:19:58;;;;;;;8.32;1.30;;;;;;;20.74;39.78;102668.28;4959305;28;20579;-71
2023/05/17 11:22:26;;;;;;;4.75;1.20;;;;;;;20.84;40.55;102670.78;4956293;28;20782;-71
2023/05/17 11:24:55;;;;;;;;;;;;;;;21.11;40.23;102680.19;4964666;28;20046;-71